sensor_id;sensor_type;location;lat;lon;timestamp;P1;durP1;ratioP1;P2;durP2;ratioP2
60919;SDS011;59039;52.108;19.942;2023-12-20T00:01:04;44.80;;;21.60;;
60919;SDS011;59039;52.108;19.942;2023-12-20T00:03:29;52.00;;;23.50;;
60919;SDS011;59039;52.108;19.942;2023-12-20T00:05:54;46.00;;;20.90;;
60919;SDS011;59039;52.108;19.942;2023-12-20T00:08:19;45.60;;;21.50;;
60919;SDS011;59039;52.108;19.942;2023-12-20T00:10:45;42.40;;;21.60;;
60919;SDS011;59039;52.108;19.942;2023-12-20T00:13:10;46.60;;;20.70;;
60919;SDS011;59039;52.108;19.942;2023-12-20T00:15:36;39.60;;;19.70;;
60919;SDS011;59039;52.108;19.942;2023-12-20T00:18:01;42.70;;;20.50;;
60919;SDS011;59039;52.108;19.942;2023-12-20T00:20:27;42.20;;;20.80;;
60919;SDS011;59039;52.108;19.942;2023-12-20T00:22:54;41.60;;;22.20;;
60919;SDS011;59039;52.108;19.942;2023-12-20T00:25:21;46.90;;;22.90;;
60919;SDS011;59039;52.108;19.942;2023-12-20T00:27:46;47.50;;;23.40;;
60919;SDS011;59039;52.108;19.942;2023-12-20T00:30:11;37.50;;;21.00;;
60919;SDS011;59039;52.108;19.942;2023-12-20T00:32:37;47.50;;;21.90;;
60919;SDS011;59039;52.108;19.942;2023-12-20T00:35:03;43.40;;;22.10;;
60919;SDS011;59039;52.108;19.942;2023-12-20T00:37:29;42.60;;;20.70;;
60919;SDS011;59039;52.108;19.942;2023-12-20T00:39:54;40.90;;;20.90;;
60919;SDS011;59039;52.108;19.942;2023-12-20T00:42:19;47.70;;;20.20;;
60919;SDS011;59039;52.108;19.942;2023-12-20T00:44:44;45.90;;;20.40;;
60919;SDS011;59039;52.108;19.942;2023-12-20T00:47:10;37.00;;;19.00;;
60919;SDS011;59039;52.108;19.942;2023-12-20T00:49:35;39.40;;;18.80;;
60919;SDS011;59039;52.108;19.942;2023-12-20T00:52:00;37.30;;;19.00;;
60919;SDS011;59039;52.108;19.942;2023-12-20T00:54:25;37.50;;;18.60;;
60919;SDS011;59039;52.108;19.942;2023-12-20T00:56:50;37.80;;;19.30;;
60919;SDS011;59039;52.108;19.942;2023-12-20T00:59:16;34.60;;;17.80;;
60919;SDS011;59039;52.108;19.942;2023-12-20T01:01:41;37.10;;;18.80;;
60919;SDS011;59039;52.108;19.942;2023-12-20T01:04:07;35.70;;;18.60;;
60919;SDS011;59039;52.108;19.942;2023-12-20T01:06:32;35.90;;;19.10;;
60919;SDS011;59039;52.108;19.942;2023-12-20T01:08:57;36.40;;;19.50;;
60919;SDS011;59039;52.108;19.942;2023-12-20T01:11:22;38.60;;;19.20;;
60919;SDS011;59039;52.108;19.942;2023-12-20T01:13:48;35.20;;;17.50;;
60919;SDS011;59039;52.108;19.942;2023-12-20T01:16:13;34.80;;;19.20;;
60919;SDS011;59039;52.108;19.942;2023-12-20T01:18:38;38.90;;;18.30;;
60919;SDS011;59039;52.108;19.942;2023-12-20T01:21:03;40.40;;;19.50;;
60919;SDS011;59039;52.108;19.942;2023-12-20T01:23:29;40.10;;;18.70;;
60919;SDS011;59039;52.108;19.942;2023-12-20T01:25:54;39.90;;;20.10;;
60919;SDS011;59039;52.108;19.942;2023-12-20T01:28:20;38.20;;;19.90;;
60919;SDS011;59039;52.108;19.942;2023-12-20T01:30:45;38.70;;;19.00;;
60919;SDS011;59039;52.108;19.942;2023-12-20T01:33:10;38.50;;;19.30;;
60919;SDS011;59039;52.108;19.942;2023-12-20T01:35:35;35.00;;;18.80;;
60919;SDS011;59039;52.108;19.942;2023-12-20T01:38:01;34.90;;;18.80;;
60919;SDS011;59039;52.108;19.942;2023-12-20T01:40:26;39.90;;;18.00;;
60919;SDS011;59039;52.108;19.942;2023-12-20T01:43:09;36.20;;;18.20;;
60919;SDS011;59039;52.108;19.942;2023-12-20T01:45:35;32.20;;;17.70;;
60919;SDS011;59039;52.108;19.942;2023-12-20T01:48:00;37.70;;;18.30;;
60919;SDS011;59039;52.108;19.942;2023-12-20T01:50:27;37.80;;;17.20;;
60919;SDS011;59039;52.108;19.942;2023-12-20T01:52:54;37.00;;;18.30;;
60919;SDS011;59039;52.108;19.942;2023-12-20T01:55:21;38.50;;;19.70;;
60919;SDS011;59039;52.108;19.942;2023-12-20T01:57:47;41.60;;;20.70;;
60919;SDS011;59039;52.108;19.942;2023-12-20T02:00:12;34.40;;;20.50;;
60919;SDS011;59039;52.108;19.942;2023-12-20T02:02:40;41.80;;;23.10;;
60919;SDS011;59039;52.108;19.942;2023-12-20T02:05:06;39.80;;;19.80;;
60919;SDS011;59039;52.108;19.942;2023-12-20T02:07:31;41.60;;;21.00;;
60919;SDS011;59039;52.108;19.942;2023-12-20T02:09:57;42.90;;;20.30;;
60919;SDS011;59039;52.108;19.942;2023-12-20T02:12:22;45.40;;;21.20;;
60919;SDS011;59039;52.108;19.942;2023-12-20T02:14:48;43.50;;;21.00;;
60919;SDS011;59039;52.108;19.942;2023-12-20T02:17:14;46.70;;;21.50;;
60919;SDS011;59039;52.108;19.942;2023-12-20T02:19:39;41.40;;;20.40;;
60919;SDS011;59039;52.108;19.942;2023-12-20T02:22:08;40.60;;;20.40;;
60919;SDS011;59039;52.108;19.942;2023-12-20T02:24:34;36.50;;;19.00;;
60919;SDS011;59039;52.108;19.942;2023-12-20T02:26:59;34.10;;;16.70;;
60919;SDS011;59039;52.108;19.942;2023-12-20T02:29:25;31.00;;;16.10;;
60919;SDS011;59039;52.108;19.942;2023-12-20T02:31:50;38.00;;;17.20;;
60919;SDS011;59039;52.108;19.942;2023-12-20T02:34:16;36.70;;;17.00;;
60919;SDS011;59039;52.108;19.942;2023-12-20T02:36:41;26.10;;;14.00;;
60919;SDS011;59039;52.108;19.942;2023-12-20T02:39:06;32.50;;;15.30;;
60919;SDS011;59039;52.108;19.942;2023-12-20T02:41:31;33.10;;;16.70;;
60919;SDS011;59039;52.108;19.942;2023-12-20T02:43:56;33.00;;;16.60;;
60919;SDS011;59039;52.108;19.942;2023-12-20T02:46:22;41.30;;;19.40;;
60919;SDS011;59039;52.108;19.942;2023-12-20T02:48:48;36.80;;;17.50;;
60919;SDS011;59039;52.108;19.942;2023-12-20T02:51:13;30.90;;;15.10;;
60919;SDS011;59039;52.108;19.942;2023-12-20T02:53:38;32.70;;;16.90;;
60919;SDS011;59039;52.108;19.942;2023-12-20T02:56:03;29.40;;;15.40;;
60919;SDS011;59039;52.108;19.942;2023-12-20T02:58:29;30.40;;;14.80;;
60919;SDS011;59039;52.108;19.942;2023-12-20T03:00:54;25.90;;;14.80;;
60919;SDS011;59039;52.108;19.942;2023-12-20T03:03:19;29.50;;;14.60;;
60919;SDS011;59039;52.108;19.942;2023-12-20T03:05:45;25.70;;;13.50;;
60919;SDS011;59039;52.108;19.942;2023-12-20T03:08:10;23.00;;;12.80;;
60919;SDS011;59039;52.108;19.942;2023-12-20T03:10:35;30.10;;;15.40;;
60919;SDS011;59039;52.108;19.942;2023-12-20T03:13:00;25.30;;;13.70;;
60919;SDS011;59039;52.108;19.942;2023-12-20T03:15:26;29.00;;;14.60;;
60919;SDS011;59039;52.108;19.942;2023-12-20T03:17:51;28.20;;;14.70;;
60919;SDS011;59039;52.108;19.942;2023-12-20T03:20:16;30.40;;;15.60;;
60919;SDS011;59039;52.108;19.942;2023-12-20T03:22:41;39.20;;;16.50;;
60919;SDS011;59039;52.108;19.942;2023-12-20T03:25:07;30.60;;;16.30;;
60919;SDS011;59039;52.108;19.942;2023-12-20T03:27:32;38.10;;;20.00;;
60919;SDS011;59039;52.108;19.942;2023-12-20T03:29:57;34.90;;;20.50;;
60919;SDS011;59039;52.108;19.942;2023-12-20T03:32:22;37.70;;;19.40;;
60919;SDS011;59039;52.108;19.942;2023-12-20T03:34:48;32.30;;;18.80;;
60919;SDS011;59039;52.108;19.942;2023-12-20T03:37:13;38.70;;;22.30;;
60919;SDS011;59039;52.108;19.942;2023-12-20T03:39:38;37.10;;;19.90;;
60919;SDS011;59039;52.108;19.942;2023-12-20T03:42:03;30.20;;;17.70;;
60919;SDS011;59039;52.108;19.942;2023-12-20T03:44:29;37.50;;;18.50;;
60919;SDS011;59039;52.108;19.942;2023-12-20T03:46:54;29.00;;;16.20;;
60919;SDS011;59039;52.108;19.942;2023-12-20T03:49:19;39.40;;;16.50;;
60919;SDS011;59039;52.108;19.942;2023-12-20T03:51:44;26.00;;;14.00;;
60919;SDS011;59039;52.108;19.942;2023-12-20T03:54:09;24.20;;;13.40;;
60919;SDS011;59039;52.108;19.942;2023-12-20T03:56:35;30.70;;;15.10;;
60919;SDS011;59039;52.108;19.942;2023-12-20T03:59:00;31.70;;;14.90;;
60919;SDS011;59039;52.108;19.942;2023-12-20T04:01:25;29.30;;;15.60;;
60919;SDS011;59039;52.108;19.942;2023-12-20T04:03:50;33.20;;;16.50;;
60919;SDS011;59039;52.108;19.942;2023-12-20T04:06:16;30.00;;;16.20;;
60919;SDS011;59039;52.108;19.942;2023-12-20T04:08:42;27.60;;;16.20;;
60919;SDS011;59039;52.108;19.942;2023-12-20T04:11:07;34.50;;;17.80;;
60919;SDS011;59039;52.108;19.942;2023-12-20T04:13:33;43.00;;;20.00;;
60919;SDS011;59039;52.108;19.942;2023-12-20T04:15:58;36.00;;;18.60;;
60919;SDS011;59039;52.108;19.942;2023-12-20T04:18:23;36.90;;;20.00;;
60919;SDS011;59039;52.108;19.942;2023-12-20T04:20:48;37.40;;;19.50;;
60919;SDS011;59039;52.108;19.942;2023-12-20T04:23:13;33.70;;;18.50;;
60919;SDS011;59039;52.108;19.942;2023-12-20T04:25:39;35.20;;;18.10;;
60919;SDS011;59039;52.108;19.942;2023-12-20T04:28:04;30.90;;;15.90;;
60919;SDS011;59039;52.108;19.942;2023-12-20T04:30:29;28.30;;;15.20;;
60919;SDS011;59039;52.108;19.942;2023-12-20T04:32:54;30.20;;;16.90;;
60919;SDS011;59039;52.108;19.942;2023-12-20T04:35:20;35.80;;;17.00;;
60919;SDS011;59039;52.108;19.942;2023-12-20T04:37:45;33.00;;;16.50;;
60919;SDS011;59039;52.108;19.942;2023-12-20T04:40:10;37.30;;;17.30;;
60919;SDS011;59039;52.108;19.942;2023-12-20T04:42:35;38.50;;;18.60;;
60919;SDS011;59039;52.108;19.942;2023-12-20T04:45:01;34.20;;;19.40;;
60919;SDS011;59039;52.108;19.942;2023-12-20T04:47:26;43.70;;;23.00;;
60919;SDS011;59039;52.108;19.942;2023-12-20T04:49:51;41.10;;;21.80;;
60919;SDS011;59039;52.108;19.942;2023-12-20T04:52:16;46.10;;;22.80;;
60919;SDS011;59039;52.108;19.942;2023-12-20T04:54:41;43.60;;;21.90;;
60919;SDS011;59039;52.108;19.942;2023-12-20T04:57:07;44.70;;;21.60;;
60919;SDS011;59039;52.108;19.942;2023-12-20T04:59:32;41.90;;;20.40;;
60919;SDS011;59039;52.108;19.942;2023-12-20T05:01:57;36.00;;;19.70;;
60919;SDS011;59039;52.108;19.942;2023-12-20T05:04:22;42.10;;;19.70;;
60919;SDS011;59039;52.108;19.942;2023-12-20T05:06:48;45.00;;;21.80;;
60919;SDS011;59039;52.108;19.942;2023-12-20T05:09:13;45.80;;;22.20;;
60919;SDS011;59039;52.108;19.942;2023-12-20T05:11:38;46.90;;;23.20;;
60919;SDS011;59039;52.108;19.942;2023-12-20T05:14:03;54.70;;;24.40;;
60919;SDS011;59039;52.108;19.942;2023-12-20T05:16:28;57.20;;;26.00;;
60919;SDS011;59039;52.108;19.942;2023-12-20T05:18:54;53.50;;;26.10;;
60919;SDS011;59039;52.108;19.942;2023-12-20T05:21:19;46.80;;;21.80;;
60919;SDS011;59039;52.108;19.942;2023-12-20T05:23:44;47.60;;;21.80;;
60919;SDS011;59039;52.108;19.942;2023-12-20T05:26:10;45.40;;;22.30;;
60919;SDS011;59039;52.108;19.942;2023-12-20T05:28:35;42.60;;;19.90;;
60919;SDS011;59039;52.108;19.942;2023-12-20T05:31:00;42.10;;;19.60;;
60919;SDS011;59039;52.108;19.942;2023-12-20T05:33:26;48.30;;;21.50;;
60919;SDS011;59039;52.108;19.942;2023-12-20T05:35:51;41.20;;;20.10;;
60919;SDS011;59039;52.108;19.942;2023-12-20T05:38:16;51.10;;;23.20;;
60919;SDS011;59039;52.108;19.942;2023-12-20T05:40:41;46.30;;;23.10;;
60919;SDS011;59039;52.108;19.942;2023-12-20T05:43:07;43.00;;;21.90;;
60919;SDS011;59039;52.108;19.942;2023-12-20T05:45:32;48.10;;;23.80;;
60919;SDS011;59039;52.108;19.942;2023-12-20T05:47:57;50.60;;;24.20;;
60919;SDS011;59039;52.108;19.942;2023-12-20T05:50:22;54.50;;;25.40;;
60919;SDS011;59039;52.108;19.942;2023-12-20T05:52:47;47.10;;;24.40;;
60919;SDS011;59039;52.108;19.942;2023-12-20T05:55:13;49.50;;;23.90;;
60919;SDS011;59039;52.108;19.942;2023-12-20T05:57:38;49.50;;;22.60;;
60919;SDS011;59039;52.108;19.942;2023-12-20T06:00:03;47.90;;;21.30;;
60919;SDS011;59039;52.108;19.942;2023-12-20T06:02:29;43.90;;;21.10;;
60919;SDS011;59039;52.108;19.942;2023-12-20T06:04:54;43.50;;;20.50;;
60919;SDS011;59039;52.108;19.942;2023-12-20T06:07:19;47.90;;;21.50;;
60919;SDS011;59039;52.108;19.942;2023-12-20T06:09:44;50.10;;;24.10;;
60919;SDS011;59039;52.108;19.942;2023-12-20T06:12:09;51.10;;;22.70;;
60919;SDS011;59039;52.108;19.942;2023-12-20T06:14:35;55.70;;;23.00;;
60919;SDS011;59039;52.108;19.942;2023-12-20T06:17:00;53.40;;;21.70;;
60919;SDS011;59039;52.108;19.942;2023-12-20T06:19:25;65.40;;;25.80;;
60919;SDS011;59039;52.108;19.942;2023-12-20T06:21:50;75.50;;;28.60;;
60919;SDS011;59039;52.108;19.942;2023-12-20T06:24:16;62.10;;;26.30;;
60919;SDS011;59039;52.108;19.942;2023-12-20T06:26:41;48.50;;;22.00;;
60919;SDS011;59039;52.108;19.942;2023-12-20T06:29:06;53.10;;;22.20;;
60919;SDS011;59039;52.108;19.942;2023-12-20T06:31:31;53.50;;;20.90;;
60919;SDS011;59039;52.108;19.942;2023-12-20T06:33:56;51.30;;;22.70;;
60919;SDS011;59039;52.108;19.942;2023-12-20T06:36:22;51.60;;;23.50;;
60919;SDS011;59039;52.108;19.942;2023-12-20T06:38:47;53.20;;;22.70;;
60919;SDS011;59039;52.108;19.942;2023-12-20T06:41:13;59.10;;;25.90;;
60919;SDS011;59039;52.108;19.942;2023-12-20T06:43:38;57.00;;;26.00;;
60919;SDS011;59039;52.108;19.942;2023-12-20T06:46:03;59.60;;;27.00;;
60919;SDS011;59039;52.108;19.942;2023-12-20T06:48:28;52.60;;;25.70;;
60919;SDS011;59039;52.108;19.942;2023-12-20T06:50:54;52.20;;;24.50;;
60919;SDS011;59039;52.108;19.942;2023-12-20T06:53:19;50.00;;;23.40;;
60919;SDS011;59039;52.108;19.942;2023-12-20T06:55:44;49.40;;;23.70;;
60919;SDS011;59039;52.108;19.942;2023-12-20T06:58:09;47.50;;;22.60;;
60919;SDS011;59039;52.108;19.942;2023-12-20T07:00:35;49.20;;;23.00;;
60919;SDS011;59039;52.108;19.942;2023-12-20T07:03:00;50.20;;;22.90;;
60919;SDS011;59039;52.108;19.942;2023-12-20T07:05:25;49.90;;;24.80;;
60919;SDS011;59039;52.108;19.942;2023-12-20T07:07:51;52.60;;;24.90;;
60919;SDS011;59039;52.108;19.942;2023-12-20T07:10:16;45.10;;;22.70;;
60919;SDS011;59039;52.108;19.942;2023-12-20T07:12:41;50.00;;;25.50;;
60919;SDS011;59039;52.108;19.942;2023-12-20T07:15:06;45.40;;;23.70;;
60919;SDS011;59039;52.108;19.942;2023-12-20T07:17:32;46.40;;;21.20;;
60919;SDS011;59039;52.108;19.942;2023-12-20T07:19:58;44.50;;;22.00;;
60919;SDS011;59039;52.108;19.942;2023-12-20T07:22:23;47.70;;;22.80;;
60919;SDS011;59039;52.108;19.942;2023-12-20T07:24:49;55.20;;;25.20;;
60919;SDS011;59039;52.108;19.942;2023-12-20T07:27:14;51.80;;;24.20;;
60919;SDS011;59039;52.108;19.942;2023-12-20T07:29:39;51.00;;;23.40;;
60919;SDS011;59039;52.108;19.942;2023-12-20T07:32:05;55.50;;;24.90;;
60919;SDS011;59039;52.108;19.942;2023-12-20T07:34:30;48.90;;;20.70;;
60919;SDS011;59039;52.108;19.942;2023-12-20T07:36:55;40.70;;;18.80;;
60919;SDS011;59039;52.108;19.942;2023-12-20T07:39:21;42.60;;;19.80;;
60919;SDS011;59039;52.108;19.942;2023-12-20T07:41:46;44.10;;;19.40;;
60919;SDS011;59039;52.108;19.942;2023-12-20T07:44:11;37.60;;;18.30;;
60919;SDS011;59039;52.108;19.942;2023-12-20T07:46:36;39.00;;;18.90;;
60919;SDS011;59039;52.108;19.942;2023-12-20T07:49:02;40.30;;;19.00;;
60919;SDS011;59039;52.108;19.942;2023-12-20T07:51:27;40.90;;;19.70;;
60919;SDS011;59039;52.108;19.942;2023-12-20T07:53:52;37.60;;;18.10;;
60919;SDS011;59039;52.108;19.942;2023-12-20T07:56:18;41.50;;;18.50;;
60919;SDS011;59039;52.108;19.942;2023-12-20T07:58:44;42.20;;;21.00;;
60919;SDS011;59039;52.108;19.942;2023-12-20T08:01:13;39.10;;;19.00;;
60919;SDS011;59039;52.108;19.942;2023-12-20T08:03:38;44.10;;;20.50;;
60919;SDS011;59039;52.108;19.942;2023-12-20T08:06:04;42.20;;;20.30;;
60919;SDS011;59039;52.108;19.942;2023-12-20T08:08:29;47.20;;;22.70;;
60919;SDS011;59039;52.108;19.942;2023-12-20T08:10:54;49.50;;;23.60;;
60919;SDS011;59039;52.108;19.942;2023-12-20T08:13:20;44.70;;;21.20;;
60919;SDS011;59039;52.108;19.942;2023-12-20T08:15:45;42.90;;;18.50;;
60919;SDS011;59039;52.108;19.942;2023-12-20T08:18:10;37.40;;;19.20;;
60919;SDS011;59039;52.108;19.942;2023-12-20T08:20:35;39.30;;;18.70;;
60919;SDS011;59039;52.108;19.942;2023-12-20T08:23:01;39.20;;;18.60;;
60919;SDS011;59039;52.108;19.942;2023-12-20T08:25:26;37.30;;;18.00;;
60919;SDS011;59039;52.108;19.942;2023-12-20T08:27:51;48.00;;;20.60;;
60919;SDS011;59039;52.108;19.942;2023-12-20T08:30:16;55.20;;;22.60;;
60919;SDS011;59039;52.108;19.942;2023-12-20T08:32:41;59.10;;;22.90;;
60919;SDS011;59039;52.108;19.942;2023-12-20T08:35:07;60.40;;;22.80;;
60919;SDS011;59039;52.108;19.942;2023-12-20T08:37:32;41.10;;;18.50;;
60919;SDS011;59039;52.108;19.942;2023-12-20T08:39:57;47.60;;;18.30;;
60919;SDS011;59039;52.108;19.942;2023-12-20T08:42:22;43.20;;;20.20;;
60919;SDS011;59039;52.108;19.942;2023-12-20T08:44:48;47.60;;;20.90;;
60919;SDS011;59039;52.108;19.942;2023-12-20T08:47:13;43.80;;;19.10;;
60919;SDS011;59039;52.108;19.942;2023-12-20T08:49:38;40.30;;;18.10;;
60919;SDS011;59039;52.108;19.942;2023-12-20T08:52:04;40.00;;;17.70;;
60919;SDS011;59039;52.108;19.942;2023-12-20T08:54:29;37.30;;;17.20;;
60919;SDS011;59039;52.108;19.942;2023-12-20T08:56:55;43.50;;;18.40;;
60919;SDS011;59039;52.108;19.942;2023-12-20T08:59:20;43.00;;;21.00;;
60919;SDS011;59039;52.108;19.942;2023-12-20T09:01:45;42.60;;;19.20;;
60919;SDS011;59039;52.108;19.942;2023-12-20T09:04:10;45.20;;;20.00;;
60919;SDS011;59039;52.108;19.942;2023-12-20T09:06:35;44.60;;;20.50;;
60919;SDS011;59039;52.108;19.942;2023-12-20T09:09:01;48.00;;;20.70;;
60919;SDS011;59039;52.108;19.942;2023-12-20T09:11:26;39.80;;;18.80;;
60919;SDS011;59039;52.108;19.942;2023-12-20T09:13:51;43.50;;;19.20;;
60919;SDS011;59039;52.108;19.942;2023-12-20T09:16:16;44.00;;;19.60;;
60919;SDS011;59039;52.108;19.942;2023-12-20T09:18:42;44.00;;;18.60;;
60919;SDS011;59039;52.108;19.942;2023-12-20T09:21:07;40.20;;;18.60;;
60919;SDS011;59039;52.108;19.942;2023-12-20T09:23:32;37.50;;;18.00;;
60919;SDS011;59039;52.108;19.942;2023-12-20T09:25:57;37.10;;;16.80;;
60919;SDS011;59039;52.108;19.942;2023-12-20T09:28:23;42.20;;;17.70;;
60919;SDS011;59039;52.108;19.942;2023-12-20T09:30:48;40.80;;;19.00;;
60919;SDS011;59039;52.108;19.942;2023-12-20T09:33:14;48.20;;;20.40;;
60919;SDS011;59039;52.108;19.942;2023-12-20T09:35:39;50.20;;;19.40;;
60919;SDS011;59039;52.108;19.942;2023-12-20T09:38:05;49.20;;;20.60;;
60919;SDS011;59039;52.108;19.942;2023-12-20T09:40:30;47.50;;;20.40;;
60919;SDS011;59039;52.108;19.942;2023-12-20T09:42:58;45.10;;;19.80;;
60919;SDS011;59039;52.108;19.942;2023-12-20T09:45:28;39.80;;;17.70;;
60919;SDS011;59039;52.108;19.942;2023-12-20T09:47:56;41.30;;;18.20;;
60919;SDS011;59039;52.108;19.942;2023-12-20T09:50:23;44.50;;;20.10;;
60919;SDS011;59039;52.108;19.942;2023-12-20T09:52:49;48.80;;;20.40;;
60919;SDS011;59039;52.108;19.942;2023-12-20T09:55:19;47.00;;;20.90;;
60919;SDS011;59039;52.108;19.942;2023-12-20T09:57:48;41.10;;;18.40;;
60919;SDS011;59039;52.108;19.942;2023-12-20T10:00:14;44.90;;;20.00;;
60919;SDS011;59039;52.108;19.942;2023-12-20T10:02:42;41.10;;;18.50;;
60919;SDS011;59039;52.108;19.942;2023-12-20T10:05:20;44.50;;;20.00;;
60919;SDS011;59039;52.108;19.942;2023-12-20T10:07:51;38.60;;;18.20;;
60919;SDS011;59039;52.108;19.942;2023-12-20T10:10:16;38.60;;;17.50;;
60919;SDS011;59039;52.108;19.942;2023-12-20T10:12:46;39.60;;;18.70;;
60919;SDS011;59039;52.108;19.942;2023-12-20T10:15:26;42.40;;;19.70;;
60919;SDS011;59039;52.108;19.942;2023-12-20T10:17:51;48.50;;;21.70;;
60919;SDS011;59039;52.108;19.942;2023-12-20T10:20:17;40.20;;;18.70;;
60919;SDS011;59039;52.108;19.942;2023-12-20T10:22:42;38.00;;;18.80;;
60919;SDS011;59039;52.108;19.942;2023-12-20T10:25:07;43.30;;;21.10;;
60919;SDS011;59039;52.108;19.942;2023-12-20T10:27:33;40.10;;;20.50;;
60919;SDS011;59039;52.108;19.942;2023-12-20T10:29:58;36.50;;;18.50;;
60919;SDS011;59039;52.108;19.942;2023-12-20T10:34:50;42.40;;;19.40;;
60919;SDS011;59039;52.108;19.942;2023-12-20T10:37:16;40.10;;;19.20;;
60919;SDS011;59039;52.108;19.942;2023-12-20T10:39:42;37.30;;;18.30;;
60919;SDS011;59039;52.108;19.942;2023-12-20T10:42:08;40.20;;;19.30;;
60919;SDS011;59039;52.108;19.942;2023-12-20T10:44:36;43.00;;;22.30;;
60919;SDS011;59039;52.108;19.942;2023-12-20T10:47:01;46.30;;;22.00;;
60919;SDS011;59039;52.108;19.942;2023-12-20T10:49:29;43.80;;;21.10;;
60919;SDS011;59039;52.108;19.942;2023-12-20T10:51:55;44.10;;;21.00;;
60919;SDS011;59039;52.108;19.942;2023-12-20T10:54:21;35.70;;;17.70;;
60919;SDS011;59039;52.108;19.942;2023-12-20T10:56:47;43.10;;;19.60;;
60919;SDS011;59039;52.108;19.942;2023-12-20T10:59:16;53.20;;;23.50;;
60919;SDS011;59039;52.108;19.942;2023-12-20T11:01:45;52.70;;;20.90;;
60919;SDS011;59039;52.108;19.942;2023-12-20T11:04:13;64.80;;;27.10;;
60919;SDS011;59039;52.108;19.942;2023-12-20T11:06:47;49.60;;;20.80;;
60919;SDS011;59039;52.108;19.942;2023-12-20T11:11:52;41.90;;;19.30;;
60919;SDS011;59039;52.108;19.942;2023-12-20T11:14:45;44.40;;;20.30;;
60919;SDS011;59039;52.108;19.942;2023-12-20T11:17:12;64.00;;;29.10;;
60919;SDS011;59039;52.108;19.942;2023-12-20T11:19:43;87.10;;;34.30;;
60919;SDS011;59039;52.108;19.942;2023-12-20T11:22:26;83.80;;;33.60;;
60919;SDS011;59039;52.108;19.942;2023-12-20T11:24:52;74.50;;;29.20;;
60919;SDS011;59039;52.108;19.942;2023-12-20T11:27:19;62.40;;;25.20;;
60919;SDS011;59039;52.108;19.942;2023-12-20T11:29:51;51.90;;;21.40;;
60919;SDS011;59039;52.108;19.942;2023-12-20T11:34:53;49.50;;;19.50;;
60919;SDS011;59039;52.108;19.942;2023-12-20T11:37:19;56.90;;;21.30;;
60919;SDS011;59039;52.108;19.942;2023-12-20T11:39:45;51.30;;;20.00;;
60919;SDS011;59039;52.108;19.942;2023-12-20T11:42:10;46.70;;;21.60;;
60919;SDS011;59039;52.108;19.942;2023-12-20T11:44:36;54.30;;;21.90;;
60919;SDS011;59039;52.108;19.942;2023-12-20T11:47:02;48.10;;;20.20;;
60919;SDS011;59039;52.108;19.942;2023-12-20T11:49:27;44.90;;;18.70;;
60919;SDS011;59039;52.108;19.942;2023-12-20T11:51:52;44.80;;;16.80;;
60919;SDS011;59039;52.108;19.942;2023-12-20T11:54:17;36.50;;;16.10;;
60919;SDS011;59039;52.108;19.942;2023-12-20T11:56:43;38.40;;;15.60;;
60919;SDS011;59039;52.108;19.942;2023-12-20T11:59:08;33.80;;;13.10;;
60919;SDS011;59039;52.108;19.942;2023-12-20T12:01:34;29.10;;;12.70;;
60919;SDS011;59039;52.108;19.942;2023-12-20T12:04:03;27.90;;;13.90;;
60919;SDS011;59039;52.108;19.942;2023-12-20T12:06:29;30.70;;;14.00;;
60919;SDS011;59039;52.108;19.942;2023-12-20T12:08:54;28.10;;;13.20;;
60919;SDS011;59039;52.108;19.942;2023-12-20T12:11:19;27.70;;;12.40;;
60919;SDS011;59039;52.108;19.942;2023-12-20T12:13:45;36.10;;;14.70;;
60919;SDS011;59039;52.108;19.942;2023-12-20T12:16:10;37.50;;;16.40;;
60919;SDS011;59039;52.108;19.942;2023-12-20T12:18:35;33.10;;;16.00;;
60919;SDS011;59039;52.108;19.942;2023-12-20T12:21:00;44.30;;;17.90;;
60919;SDS011;59039;52.108;19.942;2023-12-20T12:23:26;39.10;;;15.90;;
60919;SDS011;59039;52.108;19.942;2023-12-20T12:25:51;36.60;;;16.40;;
60919;SDS011;59039;52.108;19.942;2023-12-20T12:28:16;50.00;;;23.40;;
60919;SDS011;59039;52.108;19.942;2023-12-20T12:30:41;50.10;;;24.70;;
60919;SDS011;59039;52.108;19.942;2023-12-20T12:33:07;46.30;;;20.70;;
60919;SDS011;59039;52.108;19.942;2023-12-20T12:35:32;52.40;;;22.00;;
60919;SDS011;59039;52.108;19.942;2023-12-20T12:37:58;60.10;;;24.20;;
60919;SDS011;59039;52.108;19.942;2023-12-20T12:40:24;55.80;;;24.80;;
60919;SDS011;59039;52.108;19.942;2023-12-20T12:42:49;54.00;;;23.70;;
60919;SDS011;59039;52.108;19.942;2023-12-20T12:45:14;50.00;;;21.50;;
60919;SDS011;59039;52.108;19.942;2023-12-20T12:47:39;32.10;;;16.70;;
60919;SDS011;59039;52.108;19.942;2023-12-20T12:50:05;35.50;;;15.80;;
60919;SDS011;59039;52.108;19.942;2023-12-20T12:52:30;29.60;;;15.00;;
60919;SDS011;59039;52.108;19.942;2023-12-20T12:54:56;29.20;;;15.40;;
60919;SDS011;59039;52.108;19.942;2023-12-20T12:57:21;36.40;;;16.80;;
60919;SDS011;59039;52.108;19.942;2023-12-20T12:59:46;97.10;;;29.40;;
60919;SDS011;59039;52.108;19.942;2023-12-20T13:02:15;60.80;;;23.50;;
60919;SDS011;59039;52.108;19.942;2023-12-20T13:04:41;86.20;;;33.30;;
60919;SDS011;59039;52.108;19.942;2023-12-20T13:07:06;54.90;;;21.70;;
60919;SDS011;59039;52.108;19.942;2023-12-20T13:09:32;43.60;;;20.60;;
60919;SDS011;59039;52.108;19.942;2023-12-20T13:11:57;60.00;;;20.60;;
60919;SDS011;59039;52.108;19.942;2023-12-20T13:14:22;51.50;;;19.30;;
60919;SDS011;59039;52.108;19.942;2023-12-20T13:16:47;66.80;;;23.60;;
60919;SDS011;59039;52.108;19.942;2023-12-20T13:19:13;76.60;;;27.30;;
60919;SDS011;59039;52.108;19.942;2023-12-20T13:21:38;100.30;;;29.00;;
60919;SDS011;59039;52.108;19.942;2023-12-20T13:24:03;88.10;;;27.50;;
60919;SDS011;59039;52.108;19.942;2023-12-20T13:26:29;75.40;;;25.70;;
60919;SDS011;59039;52.108;19.942;2023-12-20T13:34:41;58.00;;;20.90;;
60919;SDS011;59039;52.108;19.942;2023-12-20T13:37:06;75.80;;;24.80;;
60919;SDS011;59039;52.108;19.942;2023-12-20T13:39:32;73.90;;;22.20;;
60919;SDS011;59039;52.108;19.942;2023-12-20T13:41:57;58.60;;;21.30;;
60919;SDS011;59039;52.108;19.942;2023-12-20T13:44:22;64.60;;;26.10;;
60919;SDS011;59039;52.108;19.942;2023-12-20T13:46:47;87.70;;;46.40;;
60919;SDS011;59039;52.108;19.942;2023-12-20T13:49:13;88.20;;;48.60;;
60919;SDS011;59039;52.108;19.942;2023-12-20T13:51:38;59.00;;;27.90;;
60919;SDS011;59039;52.108;19.942;2023-12-20T13:54:03;58.20;;;29.00;;
60919;SDS011;59039;52.108;19.942;2023-12-20T13:56:29;51.80;;;23.40;;
60919;SDS011;59039;52.108;19.942;2023-12-20T13:58:54;58.00;;;30.70;;
60919;SDS011;59039;52.108;19.942;2023-12-20T14:01:19;155.30;;;83.00;;
60919;SDS011;59039;52.108;19.942;2023-12-20T14:03:44;209.40;;;79.70;;
60919;SDS011;59039;52.108;19.942;2023-12-20T14:06:09;118.10;;;44.00;;
60919;SDS011;59039;52.108;19.942;2023-12-20T14:08:35;77.30;;;26.30;;
60919;SDS011;59039;52.108;19.942;2023-12-20T14:11:00;75.70;;;27.30;;
60919;SDS011;59039;52.108;19.942;2023-12-20T14:13:25;67.00;;;25.20;;